Terminal Aerodrome Forecast
Issued by NWS Buffalo, NY

Home | Current Version | Previous Version | Text Only | Print | Product List | Glossary On
Versions: 1 2 3 4 5 6 7 8 9 10 11 12 13 14 15 16 17 18 19 20 21 22 23 24 25 26
000
FTUS41 KBUF 230500
TAFROC
TAF
KROC 230539Z 2306/2406 21007KT P6SM FEW250
     FM231200 24009KT P6SM BKN070
     FM231300 24010G15KT P6SM -TSRA BKN040CB
     FM231700 32010KT P6SM BKN030
     FM240000 33006KT P6SM SCT035=

USA.gov is the U.S. government's official web portal to all federal, state and local government web resources and services.